Time;durP1;ratioP1;P1;durP2;ratioP2;P2;SDS_P1;SDS_P2;PMS_P1;PMS_P2;Temp;Humidity;BMP_temperature;BMP_pressure;BME280_temperature;BME280_humidity;BME280_pressure;Samples;Min_cycle;Max_cycle;Signal;HPM_P1;HPM_P2
2021/05/25 00:01:57;;;;;;;1.17;0.80;;;11.40;99.90;;;;;;4991423;28;20658;-59
2021/05/25 00:04:22;;;;;;;0.80;0.80;;;11.50;99.90;;;;;;4991452;28;20258;-59
2021/05/25 00:06:48;;;;;;;0.70;0.70;;;11.00;99.90;;;;;;4992653;28;20772;-58
2021/05/25 00:09:14;;;;;;;1.33;0.93;;;11.30;99.90;;;;;;4992125;28;20223;-59
2021/05/25 00:11:40;;;;;;;1.10;0.80;;;11.10;99.90;;;;;;4991375;28;20233;-57
2021/05/25 00:14:06;;;;;;;0.70;0.70;;;11.10;99.90;;;;;;4991620;28;20563;-59
2021/05/25 00:16:32;;;;;;;2.27;0.80;;;11.00;99.90;;;;;;4990997;28;20752;-58
2021/05/25 00:18:58;;;;;;;1.63;1.03;;;11.00;99.90;;;;;;4992716;28;20450;-58
2021/05/25 00:21:24;;;;;;;2.55;1.13;;;10.90;99.90;;;;;;4991741;28;20197;-57
2021/05/25 00:23:49;;;;;;;1.57;0.90;;;11.00;99.90;;;;;;4990867;28;20199;-58
2021/05/25 00:26:15;;;;;;;0.90;0.70;;;10.90;99.90;;;;;;4991423;28;20309;-59
2021/05/25 00:28:41;;;;;;;0.90;0.80;;;11.00;99.90;;;;;;4991349;28;20696;-59
2021/05/25 00:31:07;;;;;;;1.98;0.90;;;11.30;99.90;;;;;;4991164;28;20578;-57
2021/05/25 00:33:33;;;;;;;1.20;0.80;;;11.00;99.90;;;;;;4991480;28;20193;-57
2021/05/25 00:35:59;;;;;;;1.53;0.80;;;10.80;99.90;;;;;;4990902;28;20213;-58
2021/05/25 00:38:25;;;;;;;1.58;1.00;;;10.90;99.90;;;;;;4990784;28;20250;-57
2021/05/25 00:40:50;;;;;;;1.13;1.00;;;10.90;99.90;;;;;;4990970;28;20689;-57
2021/05/25 00:43:16;;;;;;;1.00;0.83;;;11.00;99.90;;;;;;4988264;28;20331;-57
2021/05/25 00:45:42;;;;;;;1.40;0.97;;;11.10;99.90;;;;;;4990729;28;20319;-55
2021/05/25 00:48:08;;;;;;;1.87;0.90;;;11.00;99.90;;;;;;4990707;28;20230;-57
2021/05/25 00:50:33;;;;;;;1.43;0.70;;;11.10;99.90;;;;;;4991091;28;20565;-57
2021/05/25 00:53:01;;;;;;;1.33;1.00;;;10.80;99.90;;;;;;4990982;28;20242;-58
2021/05/25 00:55:35;;;;;;;0.98;0.80;;;10.80;99.90;;;;;;4992149;28;20463;-58
2021/05/25 00:58:04;;;;;;;1.48;1.38;;;10.80;99.90;;;;;;4990498;28;20578;-58
2021/05/25 01:00:47;;;;;;;1.15;1.05;;;10.90;99.90;;;;;;4989669;28;20196;-57
2021/05/25 01:03:16;;;;;;;1.63;0.90;;;10.60;99.90;;;;;;4988083;28;20195;-57
2021/05/25 01:05:41;;;;;;;1.23;0.95;;;10.60;99.90;;;;;;4989545;28;20330;-57
2021/05/25 01:08:09;;;;;;;0.90;0.70;;;10.30;99.90;;;;;;4990547;28;20234;-58
2021/05/25 01:10:37;;;;;;;1.55;1.20;;;10.20;99.90;;;;;;4990539;28;20576;-56
2021/05/25 01:13:14;;;;;;;1.15;1.02;;;10.50;99.90;;;;;;4990776;28;20184;-57
2021/05/25 01:15:41;;;;;;;1.70;0.90;;;10.50;99.90;;;;;;4987076;28;20743;-57
2021/05/25 01:18:07;;;;;;;1.08;0.93;;;10.40;99.90;;;;;;4990124;28;20188;-55
2021/05/25 01:20:35;;;;;;;0.98;0.75;;;10.50;99.90;;;;;;4990460;28;20214;-56
2021/05/25 01:23:01;;;;;;;0.98;0.90;;;10.40;99.90;;;;;;4988002;28;20288;-56
2021/05/25 01:25:27;;;;;;;1.67;1.07;;;10.30;99.90;;;;;;4987698;28;20302;-56
2021/05/25 01:28:03;;;;;;;1.10;0.90;;;10.20;99.90;;;;;;4990267;28;20543;-57
2021/05/25 01:30:34;;;;;;;1.15;1.00;;;10.30;99.90;;;;;;4990304;28;20190;-57
2021/05/25 01:33:02;;;;;;;0.80;0.80;;;10.30;99.90;;;;;;4990020;28;20195;-57
2021/05/25 01:35:29;;;;;;;1.05;0.80;;;10.20;99.90;;;;;;4990152;28;20204;-57
2021/05/25 01:37:57;;;;;;;0.90;0.80;;;10.70;99.90;;;;;;4989335;28;20183;-57
2021/05/25 01:40:23;;;;;;;2.45;1.30;;;10.30;99.90;;;;;;4983871;28;20287;-57
2021/05/25 01:42:49;;;;;;;1.10;1.00;;;10.40;99.90;;;;;;4989906;28;20184;-57
2021/05/25 01:45:18;;;;;;;0.90;0.90;;;10.50;99.90;;;;;;4989812;28;20219;-58
2021/05/25 01:47:44;;;;;;;1.92;1.25;;;10.40;99.90;;;;;;4989955;28;20473;-57
2021/05/25 01:50:15;;;;;;;1.55;0.70;;;10.30;99.90;;;;;;4989631;28;20192;-57
2021/05/25 01:52:47;;;;;;;1.00;0.90;;;10.40;99.90;;;;;;4990006;28;20209;-57
2021/05/25 01:55:22;;;;;;;1.50;0.80;;;10.30;99.90;;;;;;4989609;28;20678;-58
2021/05/25 01:57:48;;;;;;;1.40;1.08;;;10.10;99.90;;;;;;4989258;28;20191;-55
2021/05/25 02:00:14;;;;;;;1.43;1.13;;;10.10;99.90;;;;;;4989418;28;20667;-56
2021/05/25 02:02:40;;;;;;;2.50;0.90;;;10.30;99.90;;;;;;4989016;28;20188;-57
2021/05/25 02:05:06;;;;;;;1.20;0.77;;;10.20;99.90;;;;;;4989242;28;20214;-58
2021/05/25 02:07:32;;;;;;;1.88;0.73;;;10.40;99.90;;;;;;4990739;28;20200;-58
2021/05/25 02:09:58;;;;;;;1.50;0.90;;;10.50;99.90;;;;;;4989753;28;20188;-57
2021/05/25 02:12:23;;;;;;;3.40;1.07;;;10.30;99.90;;;;;;4989868;28;20196;-56
2021/05/25 02:14:49;;;;;;;1.13;0.87;;;10.20;99.90;;;;;;4989242;28;20212;-58
2021/05/25 02:17:17;;;;;;;1.70;1.00;;;10.10;99.90;;;;;;4989057;28;20682;-56
2021/05/25 02:19:43;;;;;;;1.65;0.95;;;10.60;99.90;;;;;;4988894;28;20246;-57
2021/05/25 02:22:10;;;;;;;1.87;1.00;;;10.40;99.90;;;;;;4990891;28;20683;-57
2021/05/25 02:24:35;;;;;;;1.45;0.98;;;10.60;99.90;;;;;;4988995;28;20211;-57
2021/05/25 02:27:02;;;;;;;2.30;1.00;;;10.30;99.90;;;;;;4989164;28;20180;-56
2021/05/25 02:29:27;;;;;;;1.00;0.90;;;10.50;99.90;;;;;;4989417;28;20231;-56
2021/05/25 02:31:53;;;;;;;1.23;1.10;;;10.40;99.90;;;;;;4989177;28;20179;-56
2021/05/25 02:34:18;;;;;;;2.13;1.27;;;10.40;99.90;;;;;;4989201;28;20690;-57
2021/05/25 02:36:44;;;;;;;1.83;1.00;;;10.40;99.90;;;;;;4988776;28;20184;-57
2021/05/25 02:39:10;;;;;;;1.67;1.10;;;10.00;99.90;;;;;;4988871;28;20338;-57
2021/05/25 02:41:35;;;;;;;1.47;0.87;;;10.20;99.90;;;;;;4989153;28;20195;-56
2021/05/25 02:44:01;;;;;;;2.50;1.20;;;10.30;99.90;;;;;;4989187;28;20187;-56
2021/05/25 02:46:27;;;;;;;1.53;0.90;;;10.30;99.90;;;;;;4988979;28;20676;-57
2021/05/25 02:48:52;;;;;;;2.63;0.90;;;10.20;99.80;;;;;;4990706;28;20212;-57
2021/05/25 02:51:18;;;;;;;3.93;0.90;;;10.10;99.70;;;;;;4989094;28;20194;-56
2021/05/25 02:53:44;;;;;;;0.70;0.70;;;10.10;99.60;;;;;;4989396;28;20179;-57
2021/05/25 02:56:09;;;;;;;1.60;1.20;;;10.00;99.60;;;;;;4988435;28;20549;-57
2021/05/25 02:58:35;;;;;;;2.73;0.90;;;10.10;99.80;;;;;;4988766;28;20209;-58
2021/05/25 03:01:00;;;;;;;1.20;0.90;;;9.80;99.90;;;;;;4990246;28;20194;-57
2021/05/25 03:03:26;;;;;;;1.10;0.90;;;10.10;99.60;;;;;;4988428;28;20246;-57
2021/05/25 03:05:52;;;;;;;3.40;1.00;;;9.80;99.90;;;;;;4988570;28;20577;-56
2021/05/25 03:08:18;;;;;;;2.60;0.90;;;9.90;99.90;;;;;;4988909;28;20212;-57
2021/05/25 03:10:46;;;;;;;1.30;0.90;;;9.90;99.90;;;;;;4988947;28;20449;-59
2021/05/25 03:13:13;;;;;;;2.42;1.02;;;9.70;99.90;;;;;;4989126;28;20188;-58
2021/05/25 03:15:41;;;;;;;1.90;1.00;;;9.80;99.90;;;;;;4988329;28;20203;-59
2021/05/25 03:18:09;;;;;;;1.45;0.90;;;9.60;99.90;;;;;;4989028;28;20596;-57
2021/05/25 03:20:35;;;;;;;2.15;1.17;;;9.90;99.90;;;;;;4990233;28;20237;-59
2021/05/25 03:23:03;;;;;;;0.98;0.82;;;9.60;99.90;;;;;;4986652;28;20212;-58
2021/05/25 03:25:28;;;;;;;3.20;0.85;;;9.60;99.90;;;;;;4988294;28;20235;-57
2021/05/25 03:27:54;;;;;;;2.20;1.10;;;9.70;99.90;;;;;;4989041;28;20243;-59
2021/05/25 03:30:23;;;;;;;1.53;1.00;;;9.70;99.90;;;;;;4988607;28;20258;-58
2021/05/25 03:32:49;;;;;;;1.13;1.00;;;9.60;99.90;;;;;;4982966;28;20458;-59
2021/05/25 03:35:17;;;;;;;2.50;0.85;;;9.60;99.90;;;;;;4988677;28;20214;-58
2021/05/25 03:37:44;;;;;;;2.25;0.95;;;9.70;99.90;;;;;;4989698;28;20203;-58
2021/05/25 03:40:12;;;;;;;2.50;1.10;;;9.90;99.90;;;;;;4992102;28;20642;-58
2021/05/25 03:42:38;;;;;;;1.98;1.10;;;9.80;99.90;;;;;;4992058;28;20221;-59
2021/05/25 03:45:06;;;;;;;2.03;0.80;;;9.80;99.90;;;;;;4991845;28;20207;-57
2021/05/25 03:47:32;;;;;;;1.17;0.80;;;9.80;99.90;;;;;;4992245;28;20560;-58
2021/05/25 03:50:07;;;;;;;1.35;0.90;;;9.60;99.90;;;;;;4991910;28;20194;-58
2021/05/25 03:52:38;;;;;;;1.42;0.73;;;9.80;99.90;;;;;;4992295;28;20187;-57
2021/05/25 03:55:13;;;;;;;1.85;1.00;;;9.50;99.90;;;;;;4990737;28;20203;-58
2021/05/25 04:00:05;;;;;;;1.03;0.97;;;9.60;99.90;;;;;;4990635;28;20179;-59
2021/05/25 04:02:32;;;;;;;1.45;0.70;;;9.60;99.90;;;;;;4989933;28;20458;-60
2021/05/25 04:04:57;;;;;;;1.83;1.10;;;9.40;99.90;;;;;;4984832;28;20208;-60
2021/05/25 04:07:23;;;;;;;0.90;0.70;;;9.70;99.90;;;;;;4983640;28;20220;-57
2021/05/25 04:09:49;;;;;;;1.00;0.80;;;9.50;99.90;;;;;;4983529;28;21536;-57
2021/05/25 04:12:14;;;;;;;1.90;1.00;;;9.60;99.90;;;;;;4983911;28;20203;-56
2021/05/25 04:14:40;;;;;;;1.70;0.80;;;9.40;99.90;;;;;;4983725;28;20207;-56
2021/05/25 04:17:06;;;;;;;1.37;0.70;;;9.70;99.90;;;;;;4985695;28;20334;-56
2021/05/25 04:19:31;;;;;;;1.33;0.83;;;9.80;99.90;;;;;;4982377;28;20245;-56
2021/05/25 04:21:57;;;;;;;1.53;0.80;;;9.90;99.90;;;;;;4985689;28;20187;-56
2021/05/25 04:24:23;;;;;;;0.77;0.67;;;9.90;99.90;;;;;;4985590;28;20334;-57
2021/05/25 04:26:48;;;;;;;0.70;0.60;;;9.70;99.90;;;;;;4983885;28;20282;-55
2021/05/25 04:29:14;;;;;;;1.53;0.77;;;9.90;99.90;;;;;;4984255;28;20247;-55
2021/05/25 04:31:39;;;;;;;1.73;0.93;;;10.00;99.80;;;;;;4984158;28;20215;-57
2021/05/25 04:34:05;;;;;;;1.57;0.77;;;10.30;99.50;;;;;;4983136;28;20190;-57
2021/05/25 04:36:31;;;;;;;3.40;1.00;;;10.20;99.30;;;;;;4985430;28;20283;-57
2021/05/25 04:38:56;;;;;;;1.00;0.80;;;10.20;99.30;;;;;;4986622;28;20196;-58
2021/05/25 04:41:22;;;;;;;1.83;0.80;;;10.30;99.30;;;;;;4987247;28;20191;-60
2021/05/25 04:43:48;;;;;;;1.30;1.00;;;9.60;99.40;;;;;;4985793;28;20442;-57
2021/05/25 04:46:13;;;;;;;1.40;0.73;;;10.10;99.20;;;;;;4982404;28;20216;-58
2021/05/25 04:48:39;;;;;;;0.80;0.63;;;10.30;99.10;;;;;;4982046;28;20209;-58
2021/05/25 04:51:05;;;;;;;1.20;0.90;;;10.30;99.10;;;;;;4981968;28;20271;-58
2021/05/25 04:53:32;;;;;;;0.88;0.73;;;10.00;99.20;;;;;;4983684;28;20660;-61
2021/05/25 04:55:58;;;;;;;2.45;1.45;;;10.30;99.00;;;;;;4985394;28;20195;-59
2021/05/25 04:58:24;;;;;;;0.80;0.70;;;9.90;99.20;;;;;;4982680;28;20194;-60
2021/05/25 05:00:50;;;;;;;1.10;0.87;;;10.20;99.10;;;;;;4983228;28;20196;-57
2021/05/25 05:03:18;;;;;;;0.70;0.50;;;10.40;98.50;;;;;;4986710;28;20548;-56
2021/05/25 05:05:44;;;;;;;1.13;0.70;;;10.50;98.00;;;;;;4983986;28;20287;-56
2021/05/25 05:08:10;;;;;;;2.30;0.70;;;10.70;98.10;;;;;;4986848;28;20200;-57
2021/05/25 05:10:35;;;;;;;1.23;0.80;;;10.90;98.10;;;;;;4987066;28;20193;-57
2021/05/25 05:13:08;;;;;;;2.80;0.93;;;10.90;98.10;;;;;;4990063;28;20274;-58
2021/05/25 05:15:33;;;;;;;1.65;0.80;;;11.10;97.30;;;;;;4985589;28;20463;-57
2021/05/25 05:17:59;;;;;;;1.37;0.60;;;10.80;96.80;;;;;;4979732;28;20193;-57
2021/05/25 05:20:25;;;;;;;2.40;0.80;;;11.00;96.30;;;;;;4990126;28;20554;-57
2021/05/25 05:22:50;;;;;;;0.83;0.60;;;11.10;96.10;;;;;;4987397;28;20566;-57
2021/05/25 05:25:16;;;;;;;0.80;0.80;;;11.20;96.00;;;;;;4988020;28;20215;-56
2021/05/25 05:27:42;;;;;;;2.30;0.70;;;11.00;95.80;;;;;;4986425;28;20272;-57
2021/05/25 05:30:09;;;;;;;1.30;0.63;;;11.50;95.60;;;;;;4987701;28;20649;-57
2021/05/25 05:32:35;;;;;;;2.75;0.70;;;11.50;95.50;;;;;;4987671;28;20212;-57
2021/05/25 05:35:00;;;;;;;1.23;0.90;;;11.70;95.00;;;;;;4984764;28;20242;-57
2021/05/25 05:37:26;;;;;;;0.77;0.77;;;11.20;94.80;;;;;;4986397;28;20642;-56
2021/05/25 05:39:51;;;;;;;0.70;0.70;;;11.40;95.00;;;;;;4984403;28;20712;-57
2021/05/25 05:42:17;;;;;;;1.63;0.90;;;11.40;94.90;;;;;;4981386;28;20192;-56
2021/05/25 05:44:44;;;;;;;2.63;1.10;;;11.70;94.80;;;;;;4987152;28;20205;-56
2021/05/25 05:47:10;;;;;;;1.55;0.73;;;11.50;94.50;;;;;;4987899;28;20188;-57
2021/05/25 05:49:37;;;;;;;2.73;1.00;;;11.60;94.40;;;;;;4987895;28;20430;-57
2021/05/25 05:52:03;;;;;;;0.70;0.70;;;11.50;94.50;;;;;;4982829;28;20194;-57
2021/05/25 05:54:28;;;;;;;1.05;0.70;;;11.80;94.30;;;;;;4987964;28;20242;-56
2021/05/25 05:56:54;;;;;;;1.73;0.73;;;11.30;93.60;;;;;;4983276;28;20212;-56
2021/05/25 05:59:20;;;;;;;1.57;0.70;;;11.80;93.80;;;;;;4987413;28;20198;-56
2021/05/25 06:01:46;;;;;;;2.10;0.90;;;11.80;93.80;;;;;;4986966;28;20512;-56
2021/05/25 06:04:11;;;;;;;1.40;0.80;;;12.20;92.80;;;;;;4984151;28;20200;-57
2021/05/25 06:06:37;;;;;;;1.27;1.00;;;12.00;92.60;;;;;;4984941;28;20189;-59
2021/05/25 06:09:03;;;;;;;0.90;0.63;;;12.30;91.90;;;;;;4988546;28;20235;-59
2021/05/25 06:11:29;;;;;;;3.00;1.23;;;12.10;91.70;;;;;;4986551;28;20194;-60
2021/05/25 06:13:55;;;;;;;0.97;0.80;;;12.00;92.20;;;;;;4986602;28;20177;-59
2021/05/25 06:16:20;;;;;;;2.20;0.90;;;12.30;91.80;;;;;;4988273;28;20200;-58
2021/05/25 06:18:46;;;;;;;1.00;0.80;;;12.30;91.80;;;;;;4987523;28;20285;-59
2021/05/25 06:21:12;;;;;;;1.07;0.70;;;12.20;91.30;;;;;;4981303;28;20852;-59
2021/05/25 06:23:38;;;;;;;1.37;0.70;;;12.60;91.30;;;;;;5001910;28;20243;-57
2021/05/25 06:26:03;;;;;;;1.10;1.00;;;12.30;90.60;;;;;;4988287;28;20720;-59
2021/05/25 06:28:31;;;;;;;1.53;0.80;;;12.30;90.70;;;;;;4986298;28;20475;-58
2021/05/25 06:30:56;;;;;;;0.80;0.60;;;12.60;91.00;;;;;;4986240;28;20224;-58
2021/05/25 06:33:22;;;;;;;1.57;0.97;;;12.50;90.50;;;;;;4984426;28;20210;-60
2021/05/25 06:35:49;;;;;;;1.10;1.00;;;12.50;90.10;;;;;;4986107;28;20224;-61
2021/05/25 06:38:15;;;;;;;1.05;0.80;;;12.70;89.80;;;;;;5002327;28;20204;-61
2021/05/25 06:40:41;;;;;;;2.35;1.10;;;12.70;89.10;;;;;;4986064;28;20947;-61
2021/05/25 06:43:06;;;;;;;1.33;0.90;;;12.90;88.50;;;;;;4986219;28;20222;-61
2021/05/25 06:45:32;;;;;;;1.53;0.70;;;13.00;88.70;;;;;;4987072;28;20212;-61
2021/05/25 06:47:58;;;;;;;1.67;0.70;;;12.80;88.30;;;;;;4986199;28;20203;-61
2021/05/25 06:50:23;;;;;;;1.37;1.03;;;13.20;88.60;;;;;;4985441;28;20286;-59
2021/05/25 06:52:49;;;;;;;1.20;0.80;;;13.20;88.70;;;;;;4980023;28;20215;-61
2021/05/25 06:55:15;;;;;;;1.10;0.70;;;13.40;86.50;;;;;;4985643;28;20293;-60
2021/05/25 06:57:41;;;;;;;1.65;0.70;;;13.40;85.00;;;;;;4988696;28;20202;-60
2021/05/25 07:00:09;;;;;;;1.07;0.90;;;13.40;84.70;;;;;;4983843;28;20183;-58
2021/05/25 07:02:37;;;;;;;2.35;0.88;;;13.40;84.80;;;;;;4985312;28;20234;-58
2021/05/25 07:05:04;;;;;;;1.23;0.90;;;14.30;84.00;;;;;;4984447;28;20210;-59
2021/05/25 07:07:30;;;;;;;1.75;0.93;;;14.20;82.10;;;;;;4982965;28;20694;-58
2021/05/25 07:09:55;;;;;;;1.17;0.80;;;14.00;82.90;;;;;;4985355;28;20224;-61
2021/05/25 07:12:21;;;;;;;1.97;0.90;;;14.00;82.50;;;;;;4985818;28;20274;-60
2021/05/25 07:14:47;;;;;;;0.83;0.67;;;14.00;82.50;;;;;;4991189;28;20211;-59
2021/05/25 07:17:13;;;;;;;6.43;0.97;;;13.80;81.40;;;;;;4990906;28;20646;-59
2021/05/25 07:19:38;;;;;;;1.85;0.80;;;13.90;80.80;;;;;;5002871;28;20188;-59
2021/05/25 07:22:04;;;;;;;1.10;0.80;;;14.20;81.40;;;;;;4991419;28;20983;-59
2021/05/25 07:24:30;;;;;;;1.10;0.73;;;14.20;81.00;;;;;;4989612;28;20509;-60
2021/05/25 07:26:57;;;;;;;1.60;0.80;;;15.00;78.00;;;;;;4976379;28;20545;-58
2021/05/25 07:29:23;;;;;;;1.13;0.80;;;15.00;76.90;;;;;;4988465;28;20312;-55
2021/05/25 07:31:49;;;;;;;1.27;0.70;;;15.70;74.80;;;;;;4990099;28;20445;-56
2021/05/25 07:34:18;;;;;;;1.07;0.70;;;16.70;71.90;;;;;;4989106;28;20199;-55
2021/05/25 07:36:46;;;;;;;0.70;0.50;;;17.90;66.30;;;;;;4989929;28;20441;-57
2021/05/25 07:39:12;;;;;;;2.10;1.00;;;18.70;61.60;;;;;;4989648;28;20535;-58
2021/05/25 07:41:39;;;;;;;2.50;0.80;;;18.40;60.70;;;;;;4991450;28;20242;-57
2021/05/25 07:44:05;;;;;;;1.65;1.00;;;18.10;60.20;;;;;;4988654;28;20199;-57
2021/05/25 07:46:31;;;;;;;1.35;0.90;;;17.50;60.80;;;;;;4990708;28;20183;-58
2021/05/25 07:48:57;;;;;;;1.40;0.82;;;17.80;61.80;;;;;;4989771;28;20266;-59
2021/05/25 07:51:23;;;;;;;1.02;0.80;;;18.30;60.10;;;;;;4991842;28;20511;-59
2021/05/25 07:53:50;;;;;;;1.30;0.90;;;18.70;58.60;;;;;;4986795;28;20208;-58
2021/05/25 07:56:16;;;;;;;3.38;2.70;;;18.90;57.70;;;;;;4989393;28;20207;-59
2021/05/25 07:58:42;;;;;;;1.57;0.60;;;18.40;58.10;;;;;;4988748;28;20246;-56
2021/05/25 08:01:08;;;;;;;0.90;0.80;;;17.60;57.50;;;;;;4990542;28;20446;-55
2021/05/25 08:03:33;;;;;;;5.38;0.77;;;17.20;58.40;;;;;;4987644;28;20442;-55
2021/05/25 08:05:59;;;;;;;1.23;0.70;;;16.60;60.60;;;;;;4986961;28;20555;-55
2021/05/25 08:08:27;;;;;;;1.20;0.80;;;16.20;62.00;;;;;;4985637;28;20639;-55
2021/05/25 08:10:53;;;;;;;2.60;1.20;;;15.90;63.30;;;;;;4987549;28;20199;-55
2021/05/25 08:13:19;;;;;;;3.10;1.13;;;16.00;63.80;;;;;;4987797;28;20298;-55
2021/05/25 08:15:45;;;;;;;1.48;0.80;;;15.70;65.00;;;;;;4990165;28;20207;-55
2021/05/25 08:20:49;;;;;;;2.15;0.90;;;16.00;64.40;;;;;;4988593;28;20651;-56
2021/05/25 08:23:14;;;;;;;1.07;0.97;;;16.60;62.30;;;;;;4984146;28;20204;-55
2021/05/25 08:25:42;;;;;;;1.50;0.90;;;16.90;60.10;;;;;;4990195;28;20436;-56
2021/05/25 08:28:09;;;;;;;1.42;0.80;;;17.30;59.90;;;;;;4990893;28;20214;-55
2021/05/25 08:30:40;;;;;;;2.45;0.82;;;17.40;59.60;;;;;;4989451;28;20557;-57
2021/05/25 08:33:07;;;;;;;3.10;2.80;;;17.40;59.50;;;;;;4986656;28;20224;-57
2021/05/25 08:35:35;;;;;;;2.25;0.80;;;16.60;59.70;;;;;;4989793;28;20222;-58
2021/05/25 08:38:02;;;;;;;1.27;0.95;;;16.30;61.20;;;;;;4989107;28;20215;-58
2021/05/25 08:40:30;;;;;;;1.40;0.85;;;16.10;61.90;;;;;;4990490;28;20184;-59
2021/05/25 08:42:56;;;;;;;0.80;0.73;;;16.50;61.90;;;;;;4986016;28;20189;-59
2021/05/25 08:45:22;;;;;;;1.20;0.80;;;16.80;60.90;;;;;;4990186;28;20265;-59
2021/05/25 08:47:54;;;;;;;1.35;0.80;;;17.80;59.60;;;;;;4989232;28;20212;-60
2021/05/25 08:50:25;;;;;;;1.08;0.70;;;18.20;57.60;;;;;;4988902;28;20188;-61
2021/05/25 08:52:51;;;;;;;1.08;0.80;;;18.70;57.70;;;;;;5001499;28;20239;-61
2021/05/25 08:55:19;;;;;;;1.42;0.60;;;19.10;55.80;;;;;;4988351;28;20668;-59
2021/05/25 08:57:45;;;;;;;0.70;0.63;;;20.40;55.00;;;;;;4988917;28;20183;-59
2021/05/25 09:00:11;;;;;;;1.30;0.73;;;21.40;52.70;;;;;;4988914;28;20966;-59
2021/05/25 09:02:37;;;;;;;2.20;0.80;;;22.40;50.80;;;;;;4986645;28;20444;-61
2021/05/25 09:05:15;;;;;;;2.80;0.93;;;21.80;50.20;;;;;;4987958;28;20617;-58
2021/05/25 09:07:51;;;;;;;1.77;0.80;;;22.10;50.80;;;;;;4988175;28;20354;-60
2021/05/25 09:10:31;;;;;;;1.63;0.90;;;21.80;50.30;;;;;;4989269;28;20516;-60
2021/05/25 09:12:57;;;;;;;1.13;0.70;;;20.80;51.30;;;;;;4987373;28;20241;-58
2021/05/25 09:15:38;;;;;;;1.15;0.80;;;20.70;51.90;;;;;;4982196;28;20766;-56
2021/05/25 09:18:17;;;;;;;1.13;0.68;;;20.00;52.80;;;;;;4986971;28;20538;-57
2021/05/25 09:20:53;;;;;;;1.67;0.90;;;19.00;53.80;;;;;;4980949;28;20234;-57
2021/05/25 09:23:43;;;;;;;1.85;0.60;;;18.60;54.90;;;;;;4985631;28;20187;-58
2021/05/25 09:26:17;;;;;;;1.90;0.80;;;18.40;55.30;;;;;;4988133;28;20585;-57
2021/05/25 09:29:12;;;;;;;1.48;0.70;;;17.80;56.10;;;;;;4987469;28;20223;-59
2021/05/25 09:31:48;;;;;;;1.60;0.88;;;16.40;59.10;;;;;;4986847;28;20207;-58
2021/05/25 09:34:17;;;;;;;1.08;0.60;;;15.90;60.70;;;;;;4988871;28;20193;-60
2021/05/25 09:37:04;;;;;;;1.13;1.00;;;16.20;60.90;;;;;;4988732;28;20300;-58
2021/05/25 09:39:40;;;;;;;2.10;1.00;;;15.80;62.30;;;;;;4989507;28;20237;-57
2021/05/25 09:42:07;;;;;;;1.05;0.80;;;15.90;63.80;;;;;;4988915;28;20617;-57
2021/05/25 09:44:37;;;;;;;1.67;1.08;;;15.60;64.70;;;;;;4988640;28;20211;-58
2021/05/25 09:47:04;;;;;;;2.45;1.00;;;15.00;65.90;;;;;;4981592;28;20184;-58
2021/05/25 09:49:31;;;;;;;1.35;1.00;;;14.80;65.60;;;;;;4984712;28;20211;-58
2021/05/25 09:52:12;;;;;;;1.70;1.10;;;15.00;67.40;;;;;;4977727;28;20191;-59
2021/05/25 09:54:39;;;;;;;2.42;1.20;;;15.20;69.20;;;;;;4982343;28;20207;-60
2021/05/25 09:57:07;;;;;;;1.20;1.10;;;15.20;66.70;;;;;;4980540;28;20334;-59
2021/05/25 09:59:36;;;;;;;2.67;1.63;;;15.40;64.80;;;;;;4986982;28;20179;-57
2021/05/25 10:02:19;;;;;;;3.20;0.98;;;16.10;64.70;;;;;;4990841;28;20188;-59
2021/05/25 10:05:19;;;;;;;1.83;0.80;;;17.30;59.50;;;;;;4973298;28;20891;-58
2021/05/25 10:07:45;;;;;;;1.20;0.85;;;18.70;56.00;;;;;;4948387;28;20304;-58
2021/05/25 10:10:12;;;;;;;2.10;0.70;;;19.90;54.60;;;;;;4972271;28;20188;-60
2021/05/25 10:12:38;;;;;;;3.85;1.10;;;20.60;51.60;;;;;;4975114;28;20525;-59
2021/05/25 10:15:05;;;;;;;2.17;1.03;;;20.10;51.70;;;;;;4988147;28;20254;-59
2021/05/25 10:17:43;;;;;;;2.37;1.10;;;21.10;51.50;;;;;;4987299;28;20203;-58
2021/05/25 10:20:09;;;;;;;1.73;1.00;;;21.70;50.60;;;;;;4989058;28;20448;-59
2021/05/25 10:22:36;;;;;;;1.73;0.90;;;21.90;48.60;;;;;;4987970;28;20481;-59
2021/05/25 10:25:04;;;;;;;1.10;0.80;;;21.20;49.30;;;;;;4981445;28;21359;-60
2021/05/25 10:27:31;;;;;;;1.42;0.88;;;21.00;49.40;;;;;;4986915;28;20485;-60
2021/05/25 10:29:57;;;;;;;2.17;1.00;;;20.40;49.60;;;;;;4986383;28;20188;-60
2021/05/25 10:32:25;;;;;;;1.40;0.90;;;19.50;50.00;;;;;;4985244;28;20581;-58
2021/05/25 10:34:53;;;;;;;1.48;0.80;;;18.70;51.80;;;;;;4985027;28;20206;-58
2021/05/25 10:37:20;;;;;;;2.92;0.95;;;17.30;52.20;;;;;;4986834;28;20242;-59
2021/05/25 10:39:50;;;;;;;2.08;0.80;;;16.90;54.40;;;;;;4987911;28;20206;-60
2021/05/25 10:42:25;;;;;;;1.80;1.35;;;16.50;55.80;;;;;;4982599;28;20220;-57
2021/05/25 10:44:57;;;;;;;2.45;0.95;;;16.70;56.70;;;;;;4982857;28;20199;-59
2021/05/25 10:47:26;;;;;;;2.85;1.00;;;16.70;56.60;;;;;;5003762;28;20645;-58
2021/05/25 10:50:24;;;;;;;3.05;1.38;;;16.60;57.10;;;;;;4989326;28;20194;-59
2021/05/25 10:52:53;;;;;;;2.83;0.90;;;16.50;58.00;;;;;;4989761;28;20191;-57
2021/05/25 10:55:45;;;;;;;1.30;0.95;;;16.30;58.50;;;;;;4988989;28;20215;-57
2021/05/25 10:58:30;;;;;;;3.65;0.90;;;16.20;58.20;;;;;;4979992;28;20202;-58
2021/05/25 11:01:00;;;;;;;2.20;1.58;;;16.00;58.50;;;;;;4988132;28;20211;-57
2021/05/25 11:03:28;;;;;;;1.98;1.35;;;16.20;59.90;;;;;;4989125;28;20202;-58
2021/05/25 11:06:02;;;;;;;2.30;1.10;;;16.30;60.40;;;;;;4989354;28;20778;-59
2021/05/25 11:08:30;;;;;;;3.58;1.08;;;16.30;59.60;;;;;;4990844;28;20216;-59
2021/05/25 11:11:14;;;;;;;2.35;1.20;;;16.00;59.00;;;;;;4986631;28;20545;-58
2021/05/25 11:13:42;;;;;;;2.25;0.93;;;16.20;60.10;;;;;;4988073;28;20637;-57
2021/05/25 11:16:34;;;;;;;1.65;1.45;;;16.00;59.90;;;;;;4988579;28;20299;-59
2021/05/25 11:19:05;;;;;;;3.25;1.10;;;15.70;62.60;;;;;;4982226;28;20893;-59
2021/05/25 11:24:46;;;;;;;2.42;1.70;;;15.10;73.60;;;;;;4990134;28;20227;-59
2021/05/25 11:27:26;;;;;;;2.95;1.50;;;14.80;78.20;;;;;;4988725;28;20723;-59
2021/05/25 11:29:54;;;;;;;2.28;1.15;;;14.30;82.30;;;;;;4990843;28;20676;-59
2021/05/25 11:32:22;;;;;;;2.00;1.02;;;14.30;85.60;;;;;;4989938;28;20188;-59
2021/05/25 11:34:55;;;;;;;1.85;1.00;;;15.10;88.40;;;;;;4990282;28;20242;-57
2021/05/25 11:37:21;;;;;;;2.65;0.75;;;15.50;83.90;;;;;;4986920;28;20201;-59
2021/05/25 11:39:47;;;;;;;1.20;0.97;;;16.40;78.60;;;;;;4991632;28;20289;-60
2021/05/25 11:42:13;;;;;;;2.00;0.80;;;17.00;75.70;;;;;;4990393;28;20691;-57
2021/05/25 11:44:44;;;;;;;0.80;0.63;;;17.40;72.80;;;;;;4988120;28;20687;-58
2021/05/25 11:47:11;;;;;;;2.17;1.00;;;17.30;66.70;;;;;;5002696;28;20198;-56
2021/05/25 11:49:42;;;;;;;1.15;0.93;;;16.60;66.30;;;;;;4990099;28;20211;-55
2021/05/25 11:52:25;;;;;;;1.90;0.77;;;16.80;67.60;;;;;;4990282;28;20184;-56
2021/05/25 11:54:54;;;;;;;1.15;0.80;;;16.40;65.40;;;;;;4991077;28;20754;-59
2021/05/25 11:57:24;;;;;;;2.22;1.00;;;16.00;64.20;;;;;;4989042;28;20598;-58
2021/05/25 11:59:50;;;;;;;1.45;0.70;;;15.80;63.90;;;;;;4985446;28;20183;-60
2021/05/25 12:02:25;;;;;;;2.13;0.90;;;16.10;64.50;;;;;;4988404;28;20551;-58
2021/05/25 12:05:08;;;;;;;3.08;1.08;;;16.10;63.20;;;;;;4988633;28;20294;-58
2021/05/25 12:07:35;;;;;;;0.80;0.60;;;16.20;61.80;;;;;;4987532;28;20187;-58
2021/05/25 12:10:03;;;;;;;2.03;1.38;;;16.00;61.40;;;;;;4987397;28;20625;-58
2021/05/25 12:12:30;;;;;;;1.48;0.90;;;15.80;62.80;;;;;;4988284;28;20184;-58
2021/05/25 12:15:00;;;;;;;1.25;1.00;;;16.20;62.60;;;;;;4990824;28;20207;-58
2021/05/25 12:17:27;;;;;;;1.30;0.80;;;16.20;61.20;;;;;;4982452;28;20202;-57
2021/05/25 12:19:54;;;;;;;1.70;1.38;;;16.10;60.90;;;;;;4989553;28;20266;-57
2021/05/25 12:22:32;;;;;;;1.88;0.95;;;16.20;61.30;;;;;;4989446;28;20196;-57
2021/05/25 12:25:17;;;;;;;1.90;1.00;;;16.40;59.00;;;;;;4989034;28;20206;-57
2021/05/25 12:27:43;;;;;;;1.77;0.90;;;16.40;58.00;;;;;;4986121;28;20703;-61
2021/05/25 12:30:09;;;;;;;2.05;0.90;;;15.90;57.50;;;;;;4989103;28;20207;-60
2021/05/25 12:32:35;;;;;;;2.58;0.95;;;16.40;58.50;;;;;;4982013;28;20184;-58
2021/05/25 12:35:04;;;;;;;2.43;1.00;;;16.10;58.30;;;;;;4984092;28;20226;-59
2021/05/25 12:37:30;;;;;;;2.05;0.90;;;16.40;59.00;;;;;;4983779;28;20959;-57
2021/05/25 12:40:14;;;;;;;3.63;1.20;;;16.50;58.70;;;;;;4984879;28;20266;-58
2021/05/25 12:42:42;;;;;;;2.17;0.85;;;16.50;58.20;;;;;;4983403;28;20198;-57
2021/05/25 12:45:14;;;;;;;3.65;1.40;;;16.40;57.90;;;;;;4981286;28;20346;-57
2021/05/25 12:47:49;;;;;;;2.85;0.85;;;16.90;56.70;;;;;;4982132;28;20215;-57
2021/05/25 12:50:23;;;;;;;1.83;1.00;;;16.80;56.90;;;;;;4980701;28;20528;-57
2021/05/25 12:53:04;;;;;;;4.38;1.40;;;16.80;58.10;;;;;;4983875;28;20245;-59
2021/05/25 12:55:31;;;;;;;1.60;0.90;;;16.90;57.40;;;;;;4987497;28;20199;-56
2021/05/25 12:57:56;;;;;;;2.17;1.20;;;16.70;57.40;;;;;;4990546;28;20191;-60
2021/05/25 13:00:37;;;;;;;1.80;1.00;;;16.50;58.30;;;;;;4987506;28;20295;-61
2021/05/25 13:03:05;;;;;;;2.22;0.88;;;16.50;58.20;;;;;;5002109;28;20209;-59